Rocky Mount, NC (27802)

2:39 AM EST on February 11, 2016 (GMT -0500)
Martineer | | Change Station
CLOSE
Current Station
Personal Weather Station
Location: Rocky Mount, NC
Elevation: 132 ft
Nearby Weather Stations
Active Advisory: Flood Warning

Elev 132 ft 35.88 °N, 77.80 °W | Updated 12 seconds ago

Clear
Clear
25.2 °F
Feels Like 25 °F
N
0.0
Wind Variable Wind from ESE
Gusts 0.0 mph

Today
High -- | Low -- °F
--% Chance of Precip.
Yesterday
High -- | Low -- °F
Precip. -- in
Pressure 30.09 in
Visibility 10.0 miles
Clouds Clear
Windchill 25 °F
Dew Point 6 °F
Humidity 43%
Rainfall 0.00 in
Snow Depth Not available.
7:03 AM 5:48 PM
Waxing Crescent, 10% visible
METAR KRWI 110653Z AUTO 29003KT 10SM CLR M03/M12 A3008 RMK AO2 SLP188 T10331122
Pressure 30.09 in
Visibility 10.0 miles
Clouds Clear
Windchill 25 °F
Dew Point 6 °F
Humidity 43%
Rainfall 0.00 in
Snow Depth Not available.
7:03 AM 5:48 PM
Waxing Crescent, 10% visible
METAR KRWI 110653Z AUTO 29003KT 10SM CLR M03/M12 A3008 RMK AO2 SLP188 T10331122

10-Day Weather Forecast

Almanac

Astronomy

Feb. 11, 2016 Rise Set
Actual Time
Civil Twilight
Nautical Twilight
Astronomical Twilight
Moon
Length of Visible Light
Length of Day
Tomorrow will be .
, % of the Moon is Illuminated

Today's Extremes

State Highs State Lows

Community

WunderPhotos

Upload Photos

1,892,030 photos uploaded!

WunderBlog® & News

Nearby

Air Quality

  Air Quality AQ Index Pollutant
Not available.

Snow Depth

Station Depth Elevation

Earthquake Activity

City Distance Mag. Time & Date
Minimum magnitude displayed is 2.5.

Coastal Water Temperatures

Place Temperature

Stations

Nearby Weather Stations

Station Location Temp. Windchill Dew Point Humidity Wind Precip. Elev Updated Type
                   

Watches & Warnings

Flood Warning
Issued: 8:20 PM EST Feb. 10, 2016 – National Weather Service

The Flood Warning continues for
the Tar River at Tarboro.
* At 7:15 PM Wednesday the stage was 20.4 feet.
* Flood stage is 19.0 feet.
* Minor flooding is occurring and minor flooding is forecast.
* Forecast... the river will continue to fall to below flood stage by
tomorrow morning.
* Impact... at 20.0 feet, lowland flooding begins south of Daniel
street in east Tarboro.
* Impact... at 19.0 feet... the Riverside Park and River Road at the
US 64 bridge flood.


The following are the latest observations and 7 am forecast stages
for the next several days.


             Fld observed forecast 7 am
location stg stg day time Thu Fri Sat sun Mon

Tar River
Tarboro 19 20.4 Wed 07 PM 18.9 15.3 11.6 10.0 9.1


To convert the above stage readings to above mean sea level (ft), add
the following to the stage:



        tarboro: 10.37




Lat... Lon 3597 7760 3593 7748 3577 7751 3573 7757
          3590 7756 3593 7761